Terminal Aerodrome Forecast
Issued by NWS Sterling, VA

Home | Current Version | Previous Version | Text Only | Print | Product List | Glossary On
Versions: 1 2 3 4 5 6 7 8 9 10 11 12 13 14 15 16 17 18 19 20 21 22 23 24 25
000
FTUS41 KLWX 020536
TAFDCA
TAF
KDCA 020536Z 0206/0306 19004KT 1/2SM FG OVC002
     FM020800 25006KT P6SM OVC006
     FM021100 30008KT P6SM SCT006 OVC045
     FM021400 31011G23KT P6SM SCT150
     FM030000 31008KT P6SM SCT200=

USA.gov is the U.S. government's official web portal to all federal, state and local government web resources and services.